Time;durP1;ratioP1;P1;durP2;ratioP2;P2;SDS_P1;SDS_P2;PMS_P1;PMS_P2;Temp;Humidity;BMP_temperature;BMP_pressure;BME280_temperature;BME280_humidity;BME280_pressure;Samples;Min_cycle;Max_cycle;Signal;HPM_P1;HPM_P2
2022/06/12 00:00:27;;;;;;;;;;;;;;;17.65;91.63;99213.13;1787514;80;20112;-68
2022/06/12 00:02:54;;;;;;;;;;;;;;;17.65;91.27;99219.52;1787651;80;20096;-68
2022/06/12 00:05:22;;;;;;;;;;;;;;;17.69;91.38;99220.38;1787850;80;20145;-68
2022/06/12 00:07:50;;;;;;;;;;;;;;;17.77;91.27;99224.88;1787751;80;20092;-68
2022/06/12 00:10:17;;;;;;;;;;;;;;;17.83;90.93;99223.98;1787773;80;21121;-68
2022/06/12 00:12:44;;;;;;;;;;;;;;;17.87;90.75;99216.52;1787951;80;20085;-68
2022/06/12 00:15:13;;;;;;;;;;;;;;;17.92;90.62;99218.14;1787661;80;20093;-69
2022/06/12 00:17:43;;;;;;;;;;;;;;;17.97;90.37;99219.22;1787630;80;20112;-69
2022/06/12 00:20:11;;;;;;;;;;;;;;;18.03;90.12;99215.75;1787811;80;20080;-69
2022/06/12 00:22:38;;;;;;;;;;;;;;;18.07;89.88;99228.30;1787127;80;21727;-69
2022/06/12 00:25:06;;;;;;;;;;;;;;;18.10;89.74;99220.61;1787865;78;20127;-69
2022/06/12 00:27:33;;;;;;;;;;;;;;;18.12;89.59;99220.45;1816626;78;20074;-69
2022/06/12 00:30:01;;;;;;;;;;;;;;;18.12;89.47;99214.09;1816726;78;20114;-69
2022/06/12 00:32:29;;;;;;;;;;;;;;;18.16;89.28;99216.34;1816682;78;20078;-69
2022/06/12 00:34:57;;;;;;;;;;;;;;;18.18;89.17;99216.77;1816730;78;21160;-69
2022/06/12 00:37:25;;;;;;;;;;;;;;;18.18;89.05;99220.94;1816642;79;20130;-68
2022/06/12 00:39:52;;;;;;;;;;;;;;;18.21;89.10;99214.63;1816906;79;20091;-69
2022/06/12 00:42:29;;;;;;;;;;;;;;;18.24;88.81;99219.44;1816667;78;20090;-69
2022/06/12 00:44:56;;;;;;;;;;;;;;;18.28;88.64;99215.33;1816825;79;20152;-69
2022/06/12 00:47:23;;;;;;;;;;;;;;;18.29;88.38;99226.66;1816814;79;21238;-69
2022/06/12 00:49:54;;;;;;;;;;;;;;;18.27;88.14;99210.95;1812182;78;20125;-69
2022/06/12 00:52:30;;;;;;;;;;;;;;;18.24;88.23;99213.08;1807089;79;20434;-70
2022/06/12 00:55:15;;;;;;;;;;;;;;;18.18;88.35;99214.58;1797496;79;20072;-70
2022/06/12 00:57:44;;;;;;;;;;;;;;;18.11;88.58;99211.91;1735614;79;20191;-70
2022/06/12 01:00:13;;;;;;;;;;;;;;;18.03;88.67;99208.81;1801066;79;21082;-70
2022/06/12 01:02:40;;;;;;;;;;;;;;;17.97;88.98;99208.91;1800665;79;20099;-69
2022/06/12 01:07:55;;;;;;;;;;;;;;;17.89;89.41;99210.00;1800681;79;20115;-69
2022/06/12 01:10:25;;;;;;;;;;;;;;;17.85;89.73;99207.75;1800739;79;20116;-69
2022/06/12 01:12:54;;;;;;;;;;;;;;;17.82;89.99;99205.72;1800942;79;21138;-69
2022/06/12 01:15:32;;;;;;;;;;;;;;;17.79;90.41;99203.69;1800731;79;38364;-69
2022/06/12 01:17:58;;;;;;;;;;;;;;;17.78;90.50;99204.27;1800733;79;20443;-69
2022/06/12 01:20:27;;;;;;;;;;;;;;;17.79;90.80;99202.30;1800593;79;20264;-69
2022/06/12 01:23:15;;;;;;;;;;;;;;;17.84;90.88;99195.63;1800721;79;20068;-68
2022/06/12 01:26:00;;;;;;;;;;;;;;;17.89;90.71;99196.12;1796983;79;21138;-69
2022/06/12 01:28:44;;;;;;;;;;;;;;;17.93;90.76;99197.53;1770513;81;20206;-68
2022/06/12 01:31:17;;;;;;;;;;;;;;;17.97;90.43;99197.80;1770721;81;20588;-68
2022/06/12 01:33:48;;;;;;;;;;;;;;;18.01;90.35;99196.47;1770380;81;20106;-68
2022/06/12 01:36:52;;;;;;;;;;;;;;;18.02;90.16;99193.31;1770623;81;20114;-68
2022/06/12 01:39:47;;;;;;;;;;;;;;;18.01;90.14;99191.72;1770495;81;21803;-68
2022/06/12 01:42:26;;;;;;;;;;;;;;;18.00;90.37;99194.28;1770472;81;20170;-69
2022/06/12 01:45:09;;;;;;;;;;;;;;;18.00;90.44;99189.31;1770851;81;20094;-69
2022/06/12 01:47:53;;;;;;;;;;;;;;;17.99;90.52;99188.51;1770133;81;20082;-69
2022/06/12 01:50:32;;;;;;;;;;;;;;;18.01;90.59;99183.97;1770844;81;20105;-69
2022/06/12 01:53:13;;;;;;;;;;;;;;;18.00;90.68;99183.17;1770574;81;21548;-69
2022/06/12 01:55:51;;;;;;;;;;;;;;;18.01;90.86;99184.77;1770775;81;20094;-69
2022/06/12 01:58:44;;;;;;;;;;;;;;;18.03;90.87;99189.95;1770629;81;20118;-69
2022/06/12 02:01:10;;;;;;;;;;;;;;;18.04;91.01;99189.58;1769662;81;20102;-68
2022/06/12 02:03:46;;;;;;;;;;;;;;;18.07;91.18;99187.44;1771168;80;20155;-69
2022/06/12 02:06:23;;;;;;;;;;;;;;;18.09;91.28;99189.84;1772754;80;21727;-68
2022/06/12 02:08:57;;;;;;;;;;;;;;;18.12;91.27;99189.09;1772916;81;20110;-68
2022/06/12 02:14:19;;;;;;;;;;;;;;;18.27;92.15;99192.88;1772898;81;20145;-69
2022/06/12 02:16:47;;;;;;;;;;;;;;;18.39;91.87;99189.30;1779621;80;20101;-68
2022/06/12 02:19:17;;;;;;;;;;;;;;;18.45;91.00;99186.98;1741937;82;21779;-68
2022/06/12 02:21:52;;;;;;;;;;;;;;;18.49;91.11;99192.77;1742224;82;20173;-68
2022/06/12 02:24:27;;;;;;;;;;;;;;;18.56;90.38;99192.06;1768824;81;20118;-71
2022/06/12 02:27:04;;;;;;;;;;;;;;;18.56;90.00;99196.83;1784341;79;20154;-69
2022/06/12 02:29:36;;;;;;;;;;;;;;;18.54;90.01;99192.23;1787848;80;20085;-69
2022/06/12 02:32:07;;;;;;;;;;;;;;;18.57;90.36;99191.48;1797874;79;21886;-68
2022/06/12 02:34:36;;;;;;;;;;;;;;;18.63;90.20;99192.78;1801495;79;20106;-67
2022/06/12 02:37:05;;;;;;;;;;;;;;;18.66;89.68;99195.61;1801673;79;20142;-68
2022/06/12 02:39:42;;;;;;;;;;;;;;;18.65;89.40;99198.77;1801326;79;20114;-67
2022/06/12 02:42:16;;;;;;;;;;;;;;;18.62;89.58;99197.53;1800816;79;20129;-68
2022/06/12 02:44:50;;;;;;;;;;;;;;;18.63;89.73;99192.19;1801486;79;21126;-67
2022/06/12 02:47:21;;;;;;;;;;;;;;;18.67;89.72;99199.19;1801142;79;20174;-68
2022/06/12 02:49:48;;;;;;;;;;;;;;;18.67;89.77;99193.03;1801375;79;20110;-67
2022/06/12 02:52:25;;;;;;;;;;;;;;;18.68;90.08;99187.69;1801316;79;20161;-67
2022/06/12 02:55:02;;;;;;;;;;;;;;;18.73;90.05;99185.16;1801103;79;20217;-67
2022/06/12 02:57:36;;;;;;;;;;;;;;;18.76;90.41;99187.19;1801359;79;21069;-67
2022/06/12 03:00:19;;;;;;;;;;;;;;;18.80;90.16;99181.08;1801246;79;20099;-67
2022/06/12 03:02:57;;;;;;;;;;;;;;;18.86;89.86;99190.69;1801413;79;20198;-68
2022/06/12 03:05:29;;;;;;;;;;;;;;;18.88;89.60;99191.11;1801189;79;20110;-68
2022/06/12 03:08:02;;;;;;;;;;;;;;;18.88;89.60;99185.55;1801717;79;20150;-68
2022/06/12 03:10:31;;;;;;;;;;;;;;;18.91;89.30;99188.16;1800789;79;21238;-68
2022/06/12 03:13:00;;;;;;;;;;;;;;;18.91;89.18;99191.73;1800963;79;20118;-68
2022/06/12 03:15:49;;;;;;;;;;;;;;;18.89;89.22;99192.70;1801434;79;20122;-67
2022/06/12 03:18:22;;;;;;;;;;;;;;;18.87;89.54;99195.66;1743032;82;20694;-68
2022/06/12 03:20:59;;;;;;;;;;;;;;;18.88;89.66;99198.06;1787075;79;20106;-67
2022/06/12 03:23:36;;;;;;;;;;;;;;;18.89;90.12;99199.66;1800879;79;21707;-68
2022/06/12 03:26:04;;;;;;;;;;;;;;;18.96;90.06;99198.36;1801316;79;20190;-68
2022/06/12 03:28:42;;;;;;;;;;;;;;;18.98;89.71;99193.80;1800171;79;20106;-69
2022/06/12 03:31:24;;;;;;;;;;;;;;;18.93;89.79;99189.38;1799810;79;20115;-68
2022/06/12 03:33:57;;;;;;;;;;;;;;;18.90;90.37;99194.90;1800221;79;20146;-68
2022/06/12 03:36:27;;;;;;;;;;;;;;;18.88;90.72;99191.70;1797569;79;21134;-69
2022/06/12 03:39:00;;;;;;;;;;;;;;;18.87;91.23;99195.06;1801652;79;20411;-70
2022/06/12 03:41:39;;;;;;;;;;;;;;;18.90;91.51;99197.09;1811887;79;20170;-70
2022/06/12 03:44:21;;;;;;;;;;;;;;;18.94;91.77;99203.50;1817075;79;20145;-70
2022/06/12 03:46:54;;;;;;;;;;;;;;;18.97;91.93;99197.17;1803284;79;20115;-73
2022/06/12 03:49:32;;;;;;;;;;;;;;;19.03;92.02;99196.24;1800219;79;21263;-72
2022/06/12 03:52:17;;;;;;;;;;;;;;;19.07;91.84;99201.23;1800160;79;20092;-73
2022/06/12 03:54:51;;;;;;;;;;;;;;;19.12;92.11;99201.69;1799674;79;20108;-72
2022/06/12 03:57:52;;;;;;;;;;;;;;;19.20;92.24;99196.20;1800275;79;20451;-73
2022/06/12 04:00:24;;;;;;;;;;;;;;;19.29;92.78;99197.49;1800191;79;20068;-72
2022/06/12 04:02:55;;;;;;;;;;;;;;;19.38;92.24;99205.53;1809518;79;21124;-72
2022/06/12 04:05:37;;;;;;;;;;;;;;;19.48;92.42;99197.88;1825320;78;20075;-72
2022/06/12 04:08:04;;;;;;;;;;;;;;;19.58;92.32;99199.98;1793264;79;20128;-72
2022/06/12 04:10:34;;;;;;;;;;;;;;;19.69;91.57;99190.31;1791470;80;20068;-72
2022/06/12 04:13:01;;;;;;;;;;;;;;;19.76;91.40;99196.73;1809615;79;20110;-72
2022/06/12 04:15:43;;;;;;;;;;;;;;;19.90;91.75;99203.02;1809492;79;21737;-72
2022/06/12 04:18:10;;;;;;;;;;;;;;;20.06;90.93;99198.55;1808261;79;20117;-72
2022/06/12 04:20:40;;;;;;;;;;;;;;;20.18;89.73;99198.24;1809333;79;20143;-72
2022/06/12 04:23:22;;;;;;;;;;;;;;;20.29;89.57;99203.27;1805091;79;20082;-72
2022/06/12 04:25:58;;;;;;;;;;;;;;;20.40;88.02;99207.54;1793026;79;20115;-73
2022/06/12 04:28:39;;;;;;;;;;;;;;;20.45;88.43;99212.75;1805828;79;21127;-72
2022/06/12 04:31:09;;;;;;;;;;;;;;;20.52;87.38;99216.17;1805804;79;20135;-73
2022/06/12 04:33:51;;;;;;;;;;;;;;;20.59;86.99;99213.42;1806059;79;20469;-73
2022/06/12 04:36:18;;;;;;;;;;;;;;;20.67;87.11;99209.48;1805828;79;20079;-73
2022/06/12 04:38:45;;;;;;;;;;;;;;;20.74;86.89;99208.91;1806031;79;20427;-73
2022/06/12 04:41:15;;;;;;;;;;;;;;;20.84;87.08;99214.30;1805883;79;22122;-72
2022/06/12 04:43:42;;;;;;;;;;;;;;;20.94;85.68;99219.12;1805200;79;20080;-72
2022/06/12 04:46:09;;;;;;;;;;;;;;;20.97;85.03;99212.77;1805654;79;20104;-72
2022/06/12 04:48:39;;;;;;;;;;;;;;;20.96;84.53;99211.17;1805824;79;20091;-73
2022/06/12 04:51:06;;;;;;;;;;;;;;;20.97;84.50;99209.97;1805934;79;20150;-72
2022/06/12 04:53:32;;;;;;;;;;;;;;;20.97;84.56;99205.79;1808518;79;21024;-72
2022/06/12 04:55:59;;;;;;;;;;;;;;;21.03;84.62;99215.37;1809776;79;20113;-72
2022/06/12 04:58:25;;;;;;;;;;;;;;;21.07;84.00;99210.61;1816364;79;20130;-72
2022/06/12 05:00:52;;;;;;;;;;;;;;;21.09;84.29;99217.98;1816709;79;20417;-71
2022/06/12 05:03:20;;;;;;;;;;;;;;;21.16;84.06;99220.00;1816505;78;20422;-72
2022/06/12 05:05:47;;;;;;;;;;;;;;;21.19;83.31;99213.63;1816407;79;21128;-71
2022/06/12 05:08:15;;;;;;;;;;;;;;;21.18;82.59;99219.61;1816310;78;20430;-72
2022/06/12 05:10:42;;;;;;;;;;;;;;;21.15;82.90;99218.41;1816737;79;20078;-72
2022/06/12 05:13:08;;;;;;;;;;;;;;;21.23;83.29;99220.65;1816474;79;20425;-72
2022/06/12 05:15:36;;;;;;;;;;;;;;;21.30;82.76;99212.30;1816551;78;20437;-71
2022/06/12 05:18:03;;;;;;;;;;;;;;;21.35;82.63;99211.31;1816444;79;21083;-74
2022/06/12 05:20:31;;;;;;;;;;;;;;;21.40;81.40;99214.28;1816482;78;20413;-72
2022/06/12 05:22:58;;;;;;;;;;;;;;;21.45;82.36;99224.27;1816595;79;20066;-71
2022/06/12 05:25:25;;;;;;;;;;;;;;;21.54;82.79;99219.89;1816903;78;20715;-71
2022/06/12 05:27:51;;;;;;;;;;;;;;;21.66;81.67;99224.30;1819378;78;20097;-72
2022/06/12 05:30:20;;;;;;;;;;;;;;;21.73;82.50;99227.89;1822632;78;21108;-72
2022/06/12 05:32:47;;;;;;;;;;;;;;;21.83;81.11;99227.70;1822531;78;20146;-72
2022/06/12 05:35:14;;;;;;;;;;;;;;;21.90;81.77;99225.50;1822605;78;20078;-71
2022/06/12 05:37:41;;;;;;;;;;;;;;;21.96;79.36;99223.28;1823014;78;20093;-71
2022/06/12 05:40:13;;;;;;;;;;;;;;;22.00;80.39;99224.08;1822755;78;20133;-72
2022/06/12 05:42:39;;;;;;;;;;;;;;;22.13;80.87;99222.30;1822824;78;21133;-72
2022/06/12 05:45:07;;;;;;;;;;;;;;;22.27;81.34;99225.88;1819779;78;20499;-72
2022/06/12 05:47:35;;;;;;;;;;;;;;;22.43;80.21;99226.86;1793434;78;20118;-71
2022/06/12 05:50:02;;;;;;;;;;;;;;;22.50;78.66;99223.24;1803978;79;20458;-72
2022/06/12 05:52:28;;;;;;;;;;;;;;;22.58;78.01;99224.19;1809419;79;20115;-71
2022/06/12 05:54:54;;;;;;;;;;;;;;;22.64;78.19;99222.57;1809644;79;21489;-72
2022/06/12 05:57:21;;;;;;;;;;;;;;;22.70;78.42;99224.36;1809265;79;20434;-77
2022/06/12 05:59:48;;;;;;;;;;;;;;;22.79;78.99;99226.75;1809403;79;20104;-73
2022/06/12 06:02:14;;;;;;;;;;;;;;;22.84;77.85;99224.94;1809361;79;20088;-74
2022/06/12 06:04:41;;;;;;;;;;;;;;;22.87;77.93;99222.13;1809337;79;20474;-77
2022/06/12 06:07:08;;;;;;;;;;;;;;;22.92;77.53;99225.11;1809350;79;21602;-75
2022/06/12 06:09:34;;;;;;;;;;;;;;;22.98;76.95;99224.28;1809357;79;20115;-76
2022/06/12 06:12:03;;;;;;;;;;;;;;;23.05;77.54;99229.05;1809263;79;20075;-74
2022/06/12 06:14:31;;;;;;;;;;;;;;;23.16;77.91;99224.16;1809377;79;20442;-76
2022/06/12 06:16:58;;;;;;;;;;;;;;;23.25;76.09;99220.92;1809429;79;20091;-74
2022/06/12 06:19:24;;;;;;;;;;;;;;;23.31;77.03;99225.69;1809352;79;21435;-74
2022/06/12 06:21:51;;;;;;;;;;;;;;;23.42;75.82;99227.62;1809271;79;20111;-74
2022/06/12 06:24:17;;;;;;;;;;;;;;;23.48;73.18;99223.19;1809322;79;20152;-73
2022/06/12 06:26:44;;;;;;;;;;;;;;;23.49;73.58;99219.97;1809285;79;20092;-72
2022/06/12 06:29:10;;;;;;;;;;;;;;;23.54;73.19;99226.58;1781018;79;20153;-73
2022/06/12 06:31:36;;;;;;;;;;;;;;;23.62;74.10;99223.92;1777475;80;21541;-74
2022/06/12 06:34:03;;;;;;;;;;;;;;;23.79;72.39;99232.58;1777464;80;20445;-73
2022/06/12 06:36:30;;;;;;;;;;;;;;;23.88;73.19;99225.90;1777482;80;20102;-73
2022/06/12 06:38:57;;;;;;;;;;;;;;;23.95;71.42;99227.25;1777631;80;20458;-73
2022/06/12 06:41:24;;;;;;;;;;;;;;;24.04;72.13;99230.38;1777662;80;20141;-73
2022/06/12 06:46:31;;;;;;;;;;;;;;;24.25;71.37;99228.81;1714839;80;20134;-73
2022/06/12 06:48:58;;;;;;;;;;;;;;;24.34;71.68;99226.28;1777453;80;20118;-76
2022/06/12 06:51:24;;;;;;;;;;;;;;;24.37;69.38;99227.46;1777439;80;20167;-73
2022/06/12 06:53:52;;;;;;;;;;;;;;;24.38;70.08;99227.66;1777513;80;20417;-72
2022/06/12 06:56:18;;;;;;;;;;;;;;;24.43;70.96;99222.19;1777724;80;21495;-74
2022/06/12 06:58:45;;;;;;;;;;;;;;;24.56;70.71;99220.45;1775961;80;20082;-73
2022/06/12 07:01:11;;;;;;;;;;;;;;;24.72;70.55;99220.67;1773251;81;20109;-74
2022/06/12 07:03:37;;;;;;;;;;;;;;;24.86;69.10;99221.88;1774171;81;20373;-73
2022/06/12 07:06:04;;;;;;;;;;;;;;;24.99;68.92;99210.31;1774243;81;20110;-73
2022/06/12 07:08:31;;;;;;;;;;;;;;;25.13;68.07;99210.73;1774122;81;21132;-73
2022/06/12 07:10:59;;;;;;;;;;;;;;;25.23;67.02;99218.22;1774183;81;20106;-73
2022/06/12 07:13:26;;;;;;;;;;;;;;;25.31;65.80;99217.52;1774083;81;20129;-74
2022/06/12 07:15:54;;;;;;;;;;;;;;;25.34;65.42;99213.25;1774107;81;20291;-73
2022/06/12 07:18:22;;;;;;;;;;;;;;;25.41;66.32;99212.96;1774184;81;20085;-73
2022/06/12 07:20:52;;;;;;;;;;;;;;;25.52;66.15;99203.13;1774117;81;21030;-74
2022/06/12 07:23:20;;;;;;;;;;;;;;;25.69;66.76;99205.51;1774194;81;20122;-73
2022/06/12 07:25:49;;;;;;;;;;;;;;;25.88;66.37;99211.03;1774484;81;20133;-74
2022/06/12 07:28:15;;;;;;;;;;;;;;;26.03;63.52;99212.96;1791255;78;20105;-73
2022/06/12 07:30:42;;;;;;;;;;;;;;;26.10;64.83;99214.25;1819919;79;20437;-74
2022/06/12 07:33:08;;;;;;;;;;;;;;;26.20;64.06;99209.84;1819807;79;21108;-74
2022/06/12 07:35:35;;;;;;;;;;;;;;;26.34;62.84;99216.47;1819763;79;20181;-71
2022/06/12 07:38:02;;;;;;;;;;;;;;;26.40;62.52;99214.13;1819918;79;20090;-71
2022/06/12 07:40:35;;;;;;;;;;;;;;;26.48;61.26;99213.39;1819892;79;20082;-71
2022/06/12 07:43:01;;;;;;;;;;;;;;;26.56;60.50;99204.99;1819624;79;20105;-71
2022/06/12 07:45:27;;;;;;;;;;;;;;;26.63;59.91;99207.02;1819935;79;21074;-71
2022/06/12 07:47:54;;;;;;;;;;;;;;;26.73;59.67;99205.84;1820130;78;20086;-71
2022/06/12 07:50:21;;;;;;;;;;;;;;;26.80;58.17;99205.08;1819918;78;20110;-71
2022/06/12 07:52:47;;;;;;;;;;;;;;;26.90;58.87;99211.11;1819778;79;20133;-71
2022/06/12 07:55:15;;;;;;;;;;;;;;;27.08;59.52;99211.38;1819863;79;20109;-71
2022/06/12 07:57:42;;;;;;;;;;;;;;;27.29;58.46;99204.63;1819865;79;21135;-71
2022/06/12 08:00:10;;;;;;;;;;;;;;;27.45;57.79;99209.52;1820055;79;20066;-71
2022/06/12 08:02:42;;;;;;;;;;;;;;;27.54;55.91;99204.06;1819812;78;20082;-71
2022/06/12 08:05:09;;;;;;;;;;;;;;;27.57;57.82;99205.21;1819824;78;20086;-71
2022/06/12 08:07:36;;;;;;;;;;;;;;;27.71;57.51;99206.93;1819820;78;20156;-72
2022/06/12 08:10:03;;;;;;;;;;;;;;;27.93;55.18;99203.73;1819857;79;21487;-71
2022/06/12 08:12:32;;;;;;;;;;;;;;;27.98;55.38;99212.28;1819753;79;20078;-71
2022/06/12 08:14:59;;;;;;;;;;;;;;;28.11;54.99;99210.34;1819751;79;20101;-72
2022/06/12 08:17:26;;;;;;;;;;;;;;;28.24;54.93;99213.44;1812837;78;20199;-72
2022/06/12 08:22:38;;;;;;;;;;;;;;;28.52;54.28;99211.85;1774354;81;21778;-75
2022/06/12 08:25:06;;;;;;;;;;;;;;;28.73;52.70;99209.05;1774306;81;20086;-73
2022/06/12 08:27:32;;;;;;;;;;;;;;;28.82;50.65;99204.99;1774631;81;20070;-75
2022/06/12 08:29:59;;;;;;;;;;;;;;;28.92;51.24;99201.03;1768773;81;20106;-76
2022/06/12 08:32:25;;;;;;;;;;;;;;;29.13;50.89;99212.95;1768688;81;20519;-75
2022/06/12 08:34:56;;;;;;;;;;;;;;;29.32;51.33;99212.58;1768724;81;21154;-74
2022/06/12 08:37:26;;;;;;;;;;;;;;;29.48;51.16;99210.45;1768603;81;20422;-72
2022/06/12 08:39:52;;;;;;;;;;;;;;;29.68;51.29;99209.43;1768657;81;20418;-75
2022/06/12 08:42:25;;;;;;;;;;;;;;;29.94;50.16;99205.33;1768519;81;20081;-75
2022/06/12 08:45:01;;;;;;;;;;;;;;;30.18;49.69;99205.11;1768687;81;20094;-73
2022/06/12 08:47:31;;;;;;;;;;;;;;;30.34;47.31;99206.20;1799255;79;21142;-74
2022/06/12 08:50:18;;;;;;;;;;;;;;;30.33;46.62;99206.03;1786870;79;20459;-74
2022/06/12 08:52:58;;;;;;;;;;;;;;;30.33;47.69;99206.83;1800377;79;20079;-75
2022/06/12 08:55:34;;;;;;;;;;;;;;;30.48;47.60;99205.07;1783119;79;20436;-75
2022/06/12 08:58:25;;;;;;;;;;;;;;;30.79;47.05;99208.63;1800499;79;20415;-76
2022/06/12 09:00:54;;;;;;;;;;;;;;;31.04;45.87;99208.48;1800137;79;21160;-73
2022/06/12 09:03:22;;;;;;;;;;;;;;;31.27;45.39;99204.36;1790800;79;20131;-77
2022/06/12 09:05:55;;;;;;;;;;;;;;;31.40;44.14;99196.55;1784359;79;20088;-75
2022/06/12 09:08:43;;;;;;;;;;;;;;;31.58;44.06;99197.89;1776357;79;20068;-79
2022/06/12 09:11:34;;;;;;;;;;;;;;;31.73;42.61;99206.02;1779035;79;20120;-78
2022/06/12 09:14:15;;;;;;;;;;;;;;;31.85;43.60;99198.77;1799265;79;21137;-76
2022/06/12 09:17:00;;;;;;;;;;;;;;;31.93;43.24;99192.17;1800359;79;20103;-76
2022/06/12 09:19:38;;;;;;;;;;;;;;;31.99;43.69;99199.44;1800179;79;20457;-76
2022/06/12 09:22:09;;;;;;;;;;;;;;;31.98;43.16;99190.77;1800404;79;20112;-74
2022/06/12 09:24:57;;;;;;;;;;;;;;;31.99;43.15;99184.61;1800179;79;20111;-74
2022/06/12 09:27:46;;;;;;;;;;;;;;;32.11;41.67;99192.20;1800169;79;21080;-75
2022/06/12 09:30:19;;;;;;;;;;;;;;;31.94;41.44;99189.49;1804541;79;20123;-75
2022/06/12 09:33:02;;;;;;;;;;;;;;;31.39;42.06;99177.95;1806021;79;20119;-75
2022/06/12 09:35:51;;;;;;;;;;;;;;;30.79;42.56;99192.41;1806104;79;20091;-73
2022/06/12 09:38:29;;;;;;;;;;;;;;;30.67;44.35;99181.94;1806344;79;20080;-75
2022/06/12 09:41:08;;;;;;;;;;;;;;;31.00;44.18;99192.23;1802820;79;20146;-76
2022/06/12 09:43:54;;;;;;;;;;;;;;;31.32;42.46;99176.82;1802167;79;20096;-74
2022/06/12 09:46:45;;;;;;;;;;;;;;;31.53;40.93;99177.39;1805932;79;20403;-76
2022/06/12 09:49:35;;;;;;;;;;;;;;;31.76;42.37;99178.91;1805936;79;20800;-74
2022/06/12 09:52:24;;;;;;;;;;;;;;;31.85;42.73;99174.65;1806087;79;20443;-73
2022/06/12 09:55:00;;;;;;;;;;;;;;;31.59;41.48;99179.61;1805887;79;21253;-75
2022/06/12 09:57:51;;;;;;;;;;;;;;;31.00;41.59;99178.69;1806225;79;20111;-75
2022/06/12 10:00:28;;;;;;;;;;;;;;;30.82;42.88;99176.53;1806442;79;20115;-75
2022/06/12 10:03:14;;;;;;;;;;;;;;;31.10;43.53;99174.03;1806042;79;20116;-75
2022/06/12 10:05:50;;;;;;;;;;;;;;;31.58;42.57;99172.36;1806084;79;20454;-75
2022/06/12 10:08:38;;;;;;;;;;;;;;;31.97;40.78;99170.73;1802623;79;21724;-74
2022/06/12 10:11:09;;;;;;;;;;;;;;;32.30;40.26;99167.49;1769956;79;20123;-73
2022/06/12 10:13:41;;;;;;;;;;;;;;;32.59;40.18;99174.72;1715610;81;20441;-77
2022/06/12 10:16:13;;;;;;;;;;;;;;;32.75;38.85;99176.63;1743896;82;20155;-75
2022/06/12 10:19:05;;;;;;;;;;;;;;;33.04;37.84;99170.39;1741346;82;20119;-76
2022/06/12 10:21:34;;;;;;;;;;;;;;;33.19;36.82;99166.88;1743686;82;21184;-77
2022/06/12 10:24:01;;;;;;;;;;;;;;;33.12;36.92;99171.63;1743614;82;20084;-77
2022/06/12 10:26:29;;;;;;;;;;;;;;;33.01;36.38;99159.97;1744036;82;20171;-79
2022/06/12 10:29:12;;;;;;;;;;;;;;;32.99;37.47;99167.40;1753917;81;20133;-77
2022/06/12 10:31:47;;;;;;;;;;;;;;;33.03;37.06;99163.76;1775524;80;20117;-74
2022/06/12 10:34:17;;;;;;;;;;;;;;;33.11;37.16;99160.10;1771530;80;21211;-72
2022/06/12 10:36:43;;;;;;;;;;;;;;;33.21;36.96;99153.75;1783231;79;20144;-76
2022/06/12 10:39:14;;;;;;;;;;;;;;;33.32;36.76;99150.42;1780580;80;20080;-78
2022/06/12 10:42:00;;;;;;;;;;;;;;;33.56;36.17;99146.18;1777808;80;20090;-73
2022/06/12 10:44:39;;;;;;;;;;;;;;;33.68;36.67;99145.16;1774496;80;20465;-74
2022/06/12 10:47:21;;;;;;;;;;;;;;;33.74;35.23;99144.66;1774545;79;21235;-73
2022/06/12 10:49:50;;;;;;;;;;;;;;;33.76;35.58;99149.23;1772288;81;20480;-73
2022/06/12 10:52:21;;;;;;;;;;;;;;;33.65;36.06;99147.55;1743121;81;20129;-71
2022/06/12 10:54:50;;;;;;;;;;;;;;;33.70;35.43;99146.26;1777702;80;20084;-72
2022/06/12 10:57:29;;;;;;;;;;;;;;;33.70;35.60;99150.53;1780524;80;20117;-75
2022/06/12 11:00:09;;;;;;;;;;;;;;;33.60;36.64;99155.33;1774446;79;21903;-74
2022/06/12 11:02:39;;;;;;;;;;;;;;;33.70;36.98;99150.53;1774580;79;20082;-76
2022/06/12 11:05:09;;;;;;;;;;;;;;;33.58;34.49;99139.37;1774562;79;20073;-74
2022/06/12 11:07:42;;;;;;;;;;;;;;;33.57;34.72;99142.06;1744102;81;20413;-73
2022/06/12 11:10:25;;;;;;;;;;;;;;;33.82;35.43;99138.78;1774257;81;20189;-74
2022/06/12 11:13:06;;;;;;;;;;;;;;;34.02;34.91;99127.58;1774852;80;21096;-74
2022/06/12 11:16:04;;;;;;;;;;;;;;;34.11;34.46;99124.63;1779847;80;20080;-75
2022/06/12 11:18:56;;;;;;;;;;;;;;;34.22;34.30;99121.22;1751718;80;20187;-73
2022/06/12 11:21:44;;;;;;;;;;;;;;;34.17;32.45;99121.11;1787731;80;20116;-73
2022/06/12 11:24:19;;;;;;;;;;;;;;;34.02;33.89;99123.95;1787729;80;20104;-74
2022/06/12 11:27:08;;;;;;;;;;;;;;;33.75;32.51;99122.83;1787641;79;21079;-74
2022/06/12 11:29:45;;;;;;;;;;;;;;;33.72;32.97;99127.27;1780395;78;20090;-74
2022/06/12 11:32:17;;;;;;;;;;;;;;;33.55;31.28;99114.72;1819796;79;20070;-73
2022/06/12 11:35:13;;;;;;;;;;;;;;;33.36;32.47;99116.91;1819004;79;20090;-72
2022/06/12 11:38:06;;;;;;;;;;;;;;;33.36;33.93;99113.42;1819894;78;20090;-73
2022/06/12 11:40:55;;;;;;;;;;;;;;;33.68;32.72;99108.16;1819301;79;21153;-74
2022/06/12 11:43:35;;;;;;;;;;;;;;;33.72;32.40;99105.92;1819746;78;20438;-75
2022/06/12 11:46:26;;;;;;;;;;;;;;;33.59;32.61;99103.95;1820090;79;20107;-75
2022/06/12 11:49:16;;;;;;;;;;;;;;;33.27;33.00;99102.69;1819560;79;20552;-74
2022/06/12 11:51:49;;;;;;;;;;;;;;;32.82;33.36;99111.56;1819722;79;20170;-74
2022/06/12 11:54:35;;;;;;;;;;;;;;;32.44;33.59;99110.66;1819997;79;21309;-75
2022/06/12 11:57:14;;;;;;;;;;;;;;;32.06;34.62;99102.61;1819796;79;20211;-76
2022/06/12 11:59:54;;;;;;;;;;;;;;;31.98;34.90;99107.02;1819887;79;20091;-75
2022/06/12 12:02:43;;;;;;;;;;;;;;;32.22;35.31;99098.07;1819573;78;20094;-75
2022/06/12 12:05:27;;;;;;;;;;;;;;;32.42;33.40;99099.77;1817340;78;20461;-75
2022/06/12 12:08:06;;;;;;;;;;;;;;;32.35;35.58;99102.17;1814856;79;21097;-75
2022/06/12 12:10:49;;;;;;;;;;;;;;;32.17;34.70;99089.52;1783075;79;20130;-76
2022/06/12 12:13:25;;;;;;;;;;;;;;;32.11;34.83;99085.73;1798248;79;20431;-76
2022/06/12 12:16:06;;;;;;;;;;;;;;;32.15;34.10;99089.20;1774090;81;20094;-76
2022/06/12 12:18:44;;;;;;;;;;;;;;;32.23;33.93;99083.24;1774527;81;20082;-76
2022/06/12 12:21:32;;;;;;;;;;;;;;;32.14;32.24;99080.53;1774119;81;21141;-77
2022/06/12 12:23:59;;;;;;;;;;;;;;;31.98;33.69;99072.33;1774122;81;20089;-76
2022/06/12 12:26:31;;;;;;;;;;;;;;;32.10;35.12;99071.38;1774194;81;20109;-77
2022/06/12 12:29:00;;;;;;;;;;;;;;;32.30;36.08;99072.35;1774323;81;20118;-75
2022/06/12 12:31:27;;;;;;;;;;;;;;;32.55;37.00;99076.08;1768372;81;20519;-76
2022/06/12 12:33:54;;;;;;;;;;;;;;;33.00;35.13;99060.94;1768470;81;22197;-76
2022/06/12 12:41:54;;;;;;;;;;;;;;;33.90;31.53;99063.77;1741661;81;20481;-72
2022/06/12 12:44:36;;;;;;;;;;;;;;;33.82;32.01;99066.20;1768968;81;20421;-69
2022/06/12 12:47:04;;;;;;;;;;;;;;;33.81;31.75;99063.20;1768715;81;21146;-70
2022/06/12 12:49:35;;;;;;;;;;;;;;;34.01;32.12;99056.23;1768570;81;20126;-70
2022/06/12 12:52:14;;;;;;;;;;;;;;;34.24;31.98;99053.80;1768896;81;20457;-71
2022/06/12 12:54:47;;;;;;;;;;;;;;;34.43;30.53;99060.28;1768638;81;20082;-69
2022/06/12 12:57:22;;;;;;;;;;;;;;;34.18;30.36;99047.99;1768946;81;20098;-73
2022/06/12 12:59:52;;;;;;;;;;;;;;;33.76;33.03;99054.66;1783417;79;21790;-72
2022/06/12 13:02:24;;;;;;;;;;;;;;;33.27;32.32;99057.97;1816602;79;20090;-72
2022/06/12 13:04:55;;;;;;;;;;;;;;;32.86;33.68;99061.66;1800816;79;20506;-72
2022/06/12 13:07:51;;;;;;;;;;;;;;;32.35;33.71;99060.98;1800552;79;20096;-71
2022/06/12 13:10:28;;;;;;;;;;;;;;;32.10;34.07;99058.61;1800775;79;20485;-71
2022/06/12 13:13:00;;;;;;;;;;;;;;;32.05;34.17;99052.14;1800989;79;21133;-72
2022/06/12 13:15:48;;;;;;;;;;;;;;;32.21;35.55;99058.77;1800730;79;20434;-71
2022/06/12 13:18:44;;;;;;;;;;;;;;;32.56;35.63;99046.39;1800742;79;20108;-72
2022/06/12 13:21:18;;;;;;;;;;;;;;;33.13;34.33;99044.45;1800685;79;20339;-72
2022/06/12 13:23:52;;;;;;;;;;;;;;;33.62;33.73;99037.53;1800112;79;20415;-72
2022/06/12 13:26:19;;;;;;;;;;;;;;;34.06;32.16;99049.08;1800710;79;21122;-72
2022/06/12 13:28:55;;;;;;;;;;;;;;;34.34;31.12;99041.07;1800903;79;20462;-73
2022/06/12 13:31:21;;;;;;;;;;;;;;;34.16;30.66;99040.58;1795210;79;20082;-72
2022/06/12 13:33:52;;;;;;;;;;;;;;;33.76;31.53;99051.81;1800588;79;20164;-73
2022/06/12 13:36:20;;;;;;;;;;;;;;;33.49;31.20;99039.86;1801095;79;20112;-72